Terminal Aerodrome Forecast
Issued by NWS

Home | Current Version | Previous Version | Text Only | Print | Product List | Glossary On
Versions: 1 2 3 4 5 6 7 8 9 10 11 12 13 14 15 16 17 18 19 20 21 22 23 24 25 26
000
FTPA31 PHFO 281700
TAFJHM
TAF
PHJH 281728Z 2818/2918 02010KT P6SM FEW025 BKN060
     FM282000 02015KT P6SM FEW030 BKN060
     FM290500 02008KT P6SM SCT030 BKN050
      AMD NOT SKED AFT 290400=

USA.gov is the U.S. government's official web portal to all federal, state and local government web resources and services.